»·PEaware :: N921VN KOLS-KPHX

N921VN :: KOLS-KPHX

FLIGHT INFORMATION

Flight Status: Arrived
Operator: Privately registered:
United States
More flights under this callsign
Pilot: Kevin M. (7)
Aircraft: CESSNA 172 SKYHAWK
(C172)
More flights by this aircraft type
Origin: KOLS Nogales Intl
United States
Destination: KPHX Phoenix Sky Harbor Intl
United States
More flights between these airports :: More routes between these airports
Route:
File this flight plan on PilotEdge
Remarks: alphabet challenge
Altitude:
(Current/Filed)
6,500ft
Speed:
(Current/Filed)
140kts
Departed: 24-Oct-20 10:21 AM
Arrived: 24-Oct-20 11:32 AM
Distance/Time
Traveled:
134nm/1:11
Distance/Time
To Go:
Arrived

Flight Plot

Page will automatically refresh every two minutes.

Flight plan parsing failed; only flown route is shown


Map Options




Map Legend


Flown Route
Filed Route
Departure Airport
Arrival Airport
Navaid (VOR, NDB)
Fix

Horizontal Profiles

Position Reports

Time Latitude Longitude Heading Altitude Ground
Speed
24-Oct-20 10:16 31.418194 -110.849903 326 3895ft 0kts
24-Oct-20 10:17 31.418194 -110.849903 326 3895ft 0kts
24-Oct-20 10:18 31.418619 -110.848521 43 3902ft 14kts
24-Oct-20 10:19 31.423737 -110.842271 47 3946ft 35kts
24-Oct-20 10:20 31.419486 -110.845769 225 3943ft 78kts
24-Oct-20 10:21 31.424282 -110.857166 350 4418ft 82kts
24-Oct-20 10:22 31.445025 -110.873155 339 4820ft 93kts
24-Oct-20 10:23 31.471118 -110.879724 347 5314ft 96kts
24-Oct-20 10:24 31.497293 -110.886223 347 5831ft 96kts
24-Oct-20 10:25 31.525868 -110.893393 347 6034ft 118kts
24-Oct-20 10:26 31.557129 -110.901272 347 6400ft 106kts
24-Oct-20 10:27 31.587707 -110.909006 348 6484ft 124kts
24-Oct-20 10:28 31.621432 -110.917565 347 6492ft 124kts
24-Oct-20 10:29 31.655606 -110.926232 347 6487ft 125kts
24-Oct-20 10:30 31.689834 -110.935017 347 6487ft 125kts
24-Oct-20 10:31 31.723715 -110.943689 347 6488ft 124kts
24-Oct-20 10:32 31.743515 -110.948740 347 6482ft 124kts
24-Oct-20 10:33 31.777273 -110.957431 347 6478ft 124kts
24-Oct-20 10:34 31.810998 -110.966190 343 6475ft 124kts
24-Oct-20 10:35 31.843070 -110.981410 337 6473ft 124kts
24-Oct-20 10:36 31.875144 -110.996927 337 6470ft 124kts
24-Oct-20 10:37 31.907128 -111.012446 337 6467ft 124kts
24-Oct-20 10:38 31.939036 -111.028018 337 6465ft 123kts
24-Oct-20 10:39 31.969327 -111.046818 327 6462ft 123kts
24-Oct-20 10:40 31.998361 -111.068633 327 6464ft 124kts
24-Oct-20 10:41 32.027523 -111.090559 327 6454ft 123kts
24-Oct-20 10:42 32.056473 -111.112330 327 6452ft 123kts
24-Oct-20 10:43 32.085371 -111.134062 327 6447ft 123kts
24-Oct-20 10:44 32.114319 -111.155761 327 6444ft 123kts
24-Oct-20 10:45 32.143464 -111.177451 327 6440ft 123kts
24-Oct-20 10:46 32.172534 -111.198813 327 6437ft 123kts
24-Oct-20 10:47 32.201604 -111.219979 327 6436ft 122kts
24-Oct-20 10:48 32.230686 -111.240879 327 6433ft 122kts
24-Oct-20 10:49 32.259805 -111.261471 327 6430ft 121kts
24-Oct-20 10:50 32.289067 -111.281850 327 6428ft 121kts
24-Oct-20 10:51 32.318320 -111.301947 327 6426ft 121kts
24-Oct-20 10:52 32.347308 -111.321598 327 6423ft 121kts
24-Oct-20 10:53 32.376754 -111.341262 327 6419ft 121kts
24-Oct-20 10:54 32.406357 -111.360737 327 6418ft 121kts
24-Oct-20 10:55 32.435889 -111.379904 327 6415ft 121kts
24-Oct-20 10:56 32.465714 -111.398998 327 6413ft 121kts
24-Oct-20 10:57 32.495612 -111.417874 327 6410ft 121kts
24-Oct-20 10:58 32.525694 -111.436604 327 6411ft 123kts
24-Oct-20 10:59 32.555855 -111.455137 327 6407ft 121kts
24-Oct-20 11:00 32.585988 -111.473422 327 6407ft 121kts
24-Oct-20 11:01 32.616238 -111.491674 327 6400ft 121kts
24-Oct-20 11:02 32.646393 -111.509733 327 6397ft 121kts
24-Oct-20 11:03 32.676712 -111.527750 327 6394ft 121kts
24-Oct-20 11:04 32.706979 -111.545810 327 6399ft 122kts
24-Oct-20 11:05 32.734998 -111.567623 317 6397ft 120kts
24-Oct-20 11:06 32.761792 -111.591598 317 6395ft 120kts
24-Oct-20 11:07 32.788560 -111.615544 317 6392ft 120kts
24-Oct-20 11:08 32.815372 -111.639437 317 6390ft 120kts
24-Oct-20 11:09 32.842301 -111.663457 315 6387ft 120kts
24-Oct-20 11:10 32.865007 -111.692034 307 6386ft 119kts
24-Oct-20 11:11 32.887536 -111.720768 307 6383ft 119kts
24-Oct-20 11:12 32.912159 -111.747369 318 6381ft 121kts
24-Oct-20 11:13 32.939274 -111.771350 318 6378ft 121kts
24-Oct-20 11:14 32.966445 -111.795444 318 6377ft 121kts
24-Oct-20 11:15 32.993531 -111.819502 318 6375ft 121kts
24-Oct-20 11:16 33.020625 -111.843829 318 6375ft 121kts
24-Oct-20 11:17 33.047734 -111.868317 318 6373ft 121kts
24-Oct-20 11:18 33.074812 -111.892832 318 6251ft 129kts
24-Oct-20 11:19 33.108771 -111.912254 7 5129ft 149kts
24-Oct-20 11:20 33.148193 -111.913417 354 4474ft 137kts
24-Oct-20 11:21 33.183851 -111.916357 351 4443ft 125kts
24-Oct-20 11:22 33.217466 -111.920834 348 4513ft 125kts
24-Oct-20 11:23 33.251681 -111.928424 347 4491ft 124kts
24-Oct-20 11:24 33.285569 -111.936016 348 4488ft 124kts
24-Oct-20 11:25 33.319510 -111.943703 346 4486ft 124kts
24-Oct-20 11:26 33.346367 -111.962435 319 4386ft 126kts
24-Oct-20 11:27 33.374011 -111.988604 318 3833ft 125kts
24-Oct-20 11:28 33.396398 -112.022003 292 3018ft 132kts
24-Oct-20 11:29 33.419172 -112.046023 354 2172ft 107kts
24-Oct-20 11:30 33.428885 -112.025753 90 1127ft 66kts
24-Oct-20 11:31 33.427218 -112.016429 192 1124ft 14kts
24-Oct-20 11:32 33.427159 -112.016107 356 1124ft 0kts

Navigation Log

Ident Type
Flight plan parsing failed, navigation log unavailable